Time;durP1;ratioP1;P1;durP2;ratioP2;P2;SDS_P1;SDS_P2;PMS_P1;PMS_P2;Temp;Humidity;BMP_temperature;BMP_pressure;BME280_temperature;BME280_humidity;BME280_pressure;Samples;Min_cycle;Max_cycle;Signal;HPM_P1;HPM_P2
2023/08/04 00:00:47;;;;;;;2.57;1.50;;;;;;;;;;5072834;28;20712;-87
2023/08/04 00:03:17;;;;;;;1.70;1.33;;;;;;;;;;5067586;28;20232;-86
2023/08/04 00:05:44;;;;;;;1.50;1.33;;;;;;;;;;5063633;28;20551;-87
2023/08/04 00:08:11;;;;;;;1.40;1.30;;;;;;;;;;5069226;28;20611;-87
2023/08/04 00:10:38;;;;;;;3.03;1.23;;;;;;;;;;5067758;28;20225;-87
2023/08/04 00:13:05;;;;;;;1.47;1.37;;;;;;;;;;5063484;28;20231;-87
2023/08/04 00:15:33;;;;;;;1.67;1.50;;;;;;;;;;5069036;28;20218;-88
2023/08/04 00:18:03;;;;;;;1.20;1.20;;;;;;;;;;5063383;28;20236;-88
2023/08/04 00:20:30;;;;;;;1.43;1.20;;;;;;;;;;5072087;28;20228;-87
2023/08/04 00:22:57;;;;;;;1.90;1.60;;;;;;;;;;5059013;28;20641;-87
2023/08/04 00:25:24;;;;;;;1.30;1.20;;;;;;;;;;5071561;28;20208;-86
2023/08/04 00:27:51;;;;;;;2.13;1.57;;;;;;;;;;5064520;28;20612;-87
2023/08/04 00:30:18;;;;;;;3.53;1.60;;;;;;;;;;5070093;28;20243;-86
2023/08/04 00:32:47;;;;;;;1.70;1.50;;;;;;;;;;5062744;28;20229;-87
2023/08/04 00:35:14;;;;;;;1.33;1.23;;;;;;;;;;5071082;28;20212;-88
2023/08/04 00:37:42;;;;;;;2.70;1.70;;;;;;;;;;5061139;28;20252;-87
2023/08/04 00:40:09;;;;;;;3.03;1.70;;;;;;;;;;5067101;28;20623;-87
2023/08/04 00:42:37;;;;;;;4.93;1.97;;;;;;;;;;5062058;28;20222;-87
2023/08/04 00:45:04;;;;;;;2.50;1.60;;;;;;;;;;5065455;28;20308;-87
2023/08/04 00:47:35;;;;;;;3.60;1.80;;;;;;;;;;5066756;28;20226;-87
2023/08/04 00:50:05;;;;;;;1.57;1.47;;;;;;;;;;5060479;28;20283;-87
2023/08/04 00:52:32;;;;;;;1.70;1.60;;;;;;;;;;5066375;28;20581;-86
2023/08/04 00:54:59;;;;;;;1.70;1.60;;;;;;;;;;5069103;28;20702;-86
2023/08/04 00:57:26;;;;;;;1.60;1.43;;;;;;;;;;5072522;28;20726;-87
2023/08/04 00:59:55;;;;;;;1.90;1.40;;;;;;;;;;5075112;28;20606;-87
2023/08/04 01:02:22;;;;;;;1.70;1.60;;;;;;;;;;5073107;28;20229;-86
2023/08/04 01:04:49;;;;;;;4.10;1.70;;;;;;;;;;5060311;28;20214;-87
2023/08/04 01:07:20;;;;;;;2.80;1.67;;;;;;;;;;5067541;28;20309;-87
2023/08/04 01:09:52;;;;;;;9.37;4.77;;;;;;;;;;5061944;28;20225;-88
2023/08/04 01:12:22;;;;;;;2.73;1.97;;;;;;;;;;5068005;28;20225;-87
2023/08/04 01:14:50;;;;;;;2.63;1.80;;;;;;;;;;5059338;28;20217;-87
2023/08/04 01:17:25;;;;;;;3.80;2.03;;;;;;;;;;5065817;28;20237;-87
2023/08/04 01:19:53;;;;;;;2.80;1.83;;;;;;;;;;5063688;28;20220;-87
2023/08/04 01:22:21;;;;;;;1.60;1.50;;;;;;;;;;5060382;28;20237;-87
2023/08/04 01:24:49;;;;;;;1.93;1.83;;;;;;;;;;5063930;28;20212;-88
2023/08/04 01:27:19;;;;;;;2.07;1.87;;;;;;;;;;5056795;28;20226;-87
2023/08/04 01:29:46;;;;;;;2.13;1.90;;;;;;;;;;5063713;28;20240;-88
2023/08/04 01:32:13;;;;;;;3.10;1.57;;;;;;;;;;5060898;28;20230;-88
2023/08/04 01:34:44;;;;;;;3.10;2.20;;;;;;;;;;5067518;28;20456;-87
2023/08/04 01:37:12;;;;;;;2.17;1.97;;;;;;;;;;5062978;28;20229;-87
2023/08/04 01:39:40;;;;;;;2.10;1.90;;;;;;;;;;5060260;28;20233;-88
2023/08/04 01:42:07;;;;;;;2.67;2.23;;;;;;;;;;5066256;28;20225;-88
2023/08/04 01:44:35;;;;;;;2.53;2.10;;;;;;;;;;5065789;28;20201;-87
2023/08/04 01:47:03;;;;;;;2.67;2.00;;;;;;;;;;5056490;28;20228;-88
2023/08/04 01:49:30;;;;;;;2.10;1.90;;;;;;;;;;5066597;28;20235;-88
2023/08/04 01:51:57;;;;;;;2.10;1.73;;;;;;;;;;5062076;28;20226;-87
2023/08/04 01:54:24;;;;;;;3.07;2.23;;;;;;;;;;5063621;28;20201;-88
2023/08/04 01:56:52;;;;;;;1.80;1.70;;;;;;;;;;5062182;28;20233;-87
2023/08/04 01:59:19;;;;;;;3.57;2.33;;;;;;;;;;5063488;28;20222;-88
2023/08/04 02:01:46;;;;;;;2.10;1.90;;;;;;;;;;5058096;28;20287;-87
2023/08/04 02:04:13;;;;;;;3.30;2.20;;;;;;;;;;5065263;28;20682;-87
2023/08/04 02:06:40;;;;;;;2.10;2.00;;;;;;;;;;5062961;28;20236;-87
2023/08/04 02:09:07;;;;;;;2.47;2.00;;;;;;;;;;5065163;28;20201;-87
2023/08/04 02:11:34;;;;;;;2.93;1.87;;;;;;;;;;5064772;28;20208;-87
2023/08/04 02:14:03;;;;;;;2.63;2.10;;;;;;;;;;5061526;28;20201;-87
2023/08/04 02:16:30;;;;;;;2.47;2.27;;;;;;;;;;5060088;28;20228;-88
2023/08/04 02:19:02;;;;;;;2.23;2.03;;;;;;;;;;5064571;28;20210;-88
2023/08/04 02:21:29;;;;;;;6.03;2.13;;;;;;;;;;5064631;28;20213;-87
2023/08/04 02:23:56;;;;;;;3.60;2.20;;;;;;;;;;5062325;28;20213;-88
2023/08/04 02:26:23;;;;;;;1.97;1.87;;;;;;;;;;5061258;28;20198;-88
2023/08/04 02:28:50;;;;;;;3.93;2.20;;;;;;;;;;5062682;28;20439;-87
2023/08/04 02:31:19;;;;;;;2.37;2.17;;;;;;;;;;5064534;28;20232;-88
2023/08/04 02:33:46;;;;;;;3.10;2.40;;;;;;;;;;5063738;28;20209;-88
2023/08/04 02:36:13;;;;;;;3.37;2.20;;;;;;;;;;5060978;28;20233;-88
2023/08/04 02:38:41;;;;;;;2.22;2.08;;;;;;;;;;5060608;28;20233;-88
2023/08/04 02:41:09;;;;;;;5.63;2.47;;;;;;;;;;5060403;28;20230;-88
2023/08/04 02:43:36;;;;;;;2.42;1.92;;;;;;;;;;5067007;28;20229;-88
2023/08/04 02:46:03;;;;;;;2.30;1.90;;;;;;;;;;5071460;28;20205;-88
2023/08/04 02:48:32;;;;;;;7.00;2.30;;;;;;;;;;5065916;28;20230;-88
2023/08/04 02:50:59;;;;;;;4.20;2.20;;;;;;;;;;5065873;28;20233;-88
2023/08/04 02:53:26;;;;;;;2.70;2.23;;;;;;;;;;5065382;28;20222;-88
2023/08/04 02:55:53;;;;;;;2.87;2.50;;;;;;;;;;5062225;28;20213;-88
2023/08/04 02:58:20;;;;;;;3.03;2.20;;;;;;;;;;5065366;28;20236;-88
2023/08/04 03:00:47;;;;;;;2.07;1.97;;;;;;;;;;5060780;28;20234;-88
2023/08/04 03:03:15;;;;;;;3.00;2.10;;;;;;;;;;5061204;28;20236;-88
2023/08/04 03:05:43;;;;;;;3.20;2.87;;;;;;;;;;5065063;28;20209;-88
2023/08/04 03:08:10;;;;;;;4.37;2.83;;;;;;;;;;5056677;28;20580;-88
2023/08/04 03:10:41;;;;;;;3.93;2.77;;;;;;;;;;5064519;28;20225;-89
2023/08/04 03:13:08;;;;;;;3.17;2.47;;;;;;;;;;5060652;28;20229;-89
2023/08/04 03:15:35;;;;;;;2.57;2.37;;;;;;;;;;5061933;28;20216;-89
2023/08/04 03:18:02;;;;;;;2.73;2.53;;;;;;;;;;5062862;28;20234;-89
2023/08/04 03:20:30;;;;;;;2.60;2.40;;;;;;;;;;5062808;28;20236;-89
2023/08/04 03:22:58;;;;;;;2.97;2.40;;;;;;;;;;5068954;28;20256;-88
2023/08/04 03:25:25;;;;;;;3.93;2.83;;;;;;;;;;5070393;28;20201;-89
2023/08/04 03:27:53;;;;;;;4.80;2.70;;;;;;;;;;5062357;28;20229;-89
2023/08/04 03:30:20;;;;;;;2.80;2.50;;;;;;;;;;5061839;28;20214;-89
2023/08/04 03:32:47;;;;;;;3.30;2.30;;;;;;;;;;5061662;28;20257;-89
2023/08/04 03:35:14;;;;;;;5.03;2.70;;;;;;;;;;5065642;28;20198;-89
2023/08/04 03:37:41;;;;;;;5.43;2.80;;;;;;;;;;5062500;28;20743;-88
2023/08/04 03:40:10;;;;;;;3.77;2.87;;;;;;;;;;5064468;28;20243;-88
2023/08/04 03:42:41;;;;;;;2.80;2.53;;;;;;;;;;5063838;28;20245;-88
2023/08/04 03:45:09;;;;;;;4.57;2.90;;;;;;;;;;5060733;28;20198;-88
2023/08/04 03:47:36;;;;;;;3.27;2.70;;;;;;;;;;5060184;28;20230;-88
2023/08/04 03:50:03;;;;;;;5.87;2.60;;;;;;;;;;5083177;23;20232;-84
2023/08/04 03:52:30;;;;;;;4.27;2.90;;;;;;;;;;5065343;28;20236;-84
2023/08/04 03:54:58;;;;;;;4.93;2.80;;;;;;;;;;5060242;28;20259;-84
2023/08/04 03:57:26;;;;;;;3.43;3.10;;;;;;;;;;5064440;28;20230;-86
2023/08/04 03:59:54;;;;;;;3.57;2.80;;;;;;;;;;5064783;28;20221;-86
2023/08/04 04:02:21;;;;;;;4.07;3.07;;;;;;;;;;5057814;28;20225;-85
2023/08/04 04:04:48;;;;;;;3.00;2.60;;;;;;;;;;5063594;28;20213;-85
2023/08/04 04:07:15;;;;;;;3.40;2.90;;;;;;;;;;5064260;28;20722;-85
2023/08/04 04:09:42;;;;;;;3.00;2.30;;;;;;;;;;5062415;28;20206;-85
2023/08/04 04:12:10;;;;;;;2.70;2.50;;;;;;;;;;5064185;28;20232;-85
2023/08/04 04:14:38;;;;;;;2.90;2.40;;;;;;;;;;5064779;28;20667;-85
2023/08/04 04:17:06;;;;;;;2.60;2.40;;;;;;;;;;5065452;28;20245;-85
2023/08/04 04:19:33;;;;;;;1.87;1.73;;;;;;;;;;5065008;28;20217;-85
2023/08/04 04:22:00;;;;;;;1.80;1.70;;;;;;;;;;5064732;28;20240;-86
2023/08/04 04:24:27;;;;;;;1.73;1.57;;;;;;;;;;5062717;28;20228;-86
2023/08/04 04:26:54;;;;;;;2.13;1.70;;;;;;;;;;5060454;28;20241;-85
2023/08/04 04:29:21;;;;;;;2.83;1.57;;;;;;;;;;5075591;28;20217;-85
2023/08/04 04:31:49;;;;;;;1.77;1.67;;;;;;;;;;5067464;28;20237;-87
2023/08/04 04:34:17;;;;;;;5.30;2.20;;;;;;;;;;5064719;28;20686;-86
2023/08/04 04:36:44;;;;;;;2.83;2.10;;;;;;;;;;5064574;28;20580;-87
2023/08/04 04:39:11;;;;;;;3.27;2.60;;;;;;;;;;5064914;28;20206;-87
2023/08/04 04:41:38;;;;;;;3.53;2.33;;;;;;;;;;5071603;28;20245;-87
2023/08/04 04:44:05;;;;;;;4.43;2.67;;;;;;;;;;5062662;28;20190;-87
2023/08/04 04:46:33;;;;;;;4.17;2.73;;;;;;;;;;5059603;28;20209;-87
2023/08/04 04:49:01;;;;;;;3.13;2.90;;;;;;;;;;5064120;28;20203;-88
2023/08/04 04:51:28;;;;;;;3.50;3.10;;;;;;;;;;5069740;28;20232;-87
2023/08/04 04:53:55;;;;;;;3.93;3.47;;;;;;;;;;5067430;28;20202;-87
2023/08/04 04:56:24;;;;;;;3.73;3.40;;;;;;;;;;5064305;28;20208;-90
2023/08/04 04:58:51;;;;;;;2.80;2.60;;;;;;;;;;5073009;28;20267;-89
2023/08/04 05:01:19;;;;;;;3.10;2.83;;;;;;;;;;5066874;28;20255;-87
2023/08/04 05:03:46;;;;;;;3.07;2.70;;;;;;;;;;5058792;28;20212;-88
2023/08/04 05:06:15;;;;;;;2.90;2.60;;;;;;;;;;5072090;28;20206;-89
2023/08/04 05:08:42;;;;;;;2.70;2.37;;;;;;;;;;5062062;28;20587;-89
2023/08/04 05:11:09;;;;;;;3.03;2.60;;;;;;;;;;5057509;28;20240;-87
2023/08/04 05:13:36;;;;;;;4.40;2.80;;;;;;;;;;5065735;28;20275;-88
2023/08/04 05:16:04;;;;;;;4.43;2.60;;;;;;;;;;5055863;28;20200;-86
2023/08/04 05:18:31;;;;;;;2.80;2.60;;;;;;;;;;5063993;28;20241;-86
2023/08/04 05:20:58;;;;;;;3.33;2.67;;;;;;;;;;5063069;28;20227;-87
2023/08/04 05:23:27;;;;;;;6.07;2.40;;;;;;;;;;5061875;28;20230;-88
2023/08/04 05:25:54;;;;;;;2.73;2.53;;;;;;;;;;5063093;28;20206;-88
2023/08/04 05:28:27;;;;;;;2.93;2.37;;;;;;;;;;5070023;28;20233;-88
2023/08/04 05:30:56;;;;;;;5.47;2.43;;;;;;;;;;5062988;28;20583;-89
2023/08/04 05:33:23;;;;;;;2.87;2.30;;;;;;;;;;5066326;28;20739;-89
2023/08/04 05:35:50;;;;;;;3.07;2.73;;;;;;;;;;5067024;28;20690;-88
2023/08/04 05:38:17;;;;;;;2.57;2.37;;;;;;;;;;5054996;28;20699;-88
2023/08/04 05:40:46;;;;;;;3.93;2.40;;;;;;;;;;5063422;28;20607;-88
2023/08/04 05:43:13;;;;;;;5.93;2.40;;;;;;;;;;5065787;28;20723;-87
2023/08/04 05:45:42;;;;;;;3.07;2.60;;;;;;;;;;5066766;28;20209;-88
2023/08/04 05:48:09;;;;;;;4.97;2.60;;;;;;;;;;5058190;28;20584;-88
2023/08/04 05:50:36;;;;;;;2.80;2.57;;;;;;;;;;5066615;28;20640;-88
2023/08/04 05:53:03;;;;;;;3.27;2.97;;;;;;;;;;5064293;28;20252;-87
2023/08/04 05:55:31;;;;;;;3.40;2.60;;;;;;;;;;5060875;28;20192;-88
2023/08/04 05:57:59;;;;;;;5.97;3.20;;;;;;;;;;5065309;28;20210;-88
2023/08/04 06:00:26;;;;;;;2.90;2.70;;;;;;;;;;5055195;28;20230;-87
2023/08/04 06:02:53;;;;;;;2.90;2.60;;;;;;;;;;5062887;28;20249;-87
2023/08/04 06:05:21;;;;;;;2.90;2.57;;;;;;;;;;5065734;28;20569;-87
2023/08/04 06:07:48;;;;;;;3.90;3.27;;;;;;;;;;5065506;28;20226;-87
2023/08/04 06:10:18;;;;;;;3.63;3.10;;;;;;;;;;5065161;28;20225;-87
2023/08/04 06:12:45;;;;;;;5.03;3.43;;;;;;;;;;5065540;28;20252;-88
2023/08/04 06:15:14;;;;;;;4.60;3.93;;;;;;;;;;5063012;28;20209;-87
2023/08/04 06:17:41;;;;;;;4.00;3.57;;;;;;;;;;5062171;28;20234;-90
2023/08/04 06:20:09;;;;;;;3.13;2.87;;;;;;;;;;5056974;28;20230;-90
2023/08/04 06:22:36;;;;;;;3.30;3.00;;;;;;;;;;5074311;28;20722;-90
2023/08/04 06:25:04;;;;;;;4.00;3.13;;;;;;;;;;5064801;28;20201;-90
2023/08/04 06:27:31;;;;;;;4.27;3.40;;;;;;;;;;5062728;28;20226;-90
2023/08/04 06:29:58;;;;;;;3.13;2.83;;;;;;;;;;5068881;28;20225;-90
2023/08/04 06:32:27;;;;;;;4.03;3.37;;;;;;;;;;5049167;28;20233;-91
2023/08/04 06:34:54;;;;;;;4.90;3.23;;;;;;;;;;5062722;28;20209;-90
2023/08/04 06:37:21;;;;;;;3.50;3.20;;;;;;;;;;5073872;28;20233;-90
2023/08/04 06:39:49;;;;;;;4.67;3.73;;;;;;;;;;5074315;28;20229;-90
2023/08/04 06:42:16;;;;;;;4.60;3.37;;;;;;;;;;5070773;28;20647;-90
2023/08/04 06:44:44;;;;;;;4.40;3.40;;;;;;;;;;5054547;28;20271;-90
2023/08/04 06:47:11;;;;;;;3.70;3.40;;;;;;;;;;5053980;28;20228;-90
2023/08/04 06:49:39;;;;;;;6.17;3.57;;;;;;;;;;5062533;28;20608;-90
2023/08/04 06:52:07;;;;;;;5.77;4.00;;;;;;;;;;5055693;28;20245;-91
2023/08/04 06:54:35;;;;;;;4.27;3.40;;;;;;;;;;5061096;28;20260;-89
2023/08/04 06:57:02;;;;;;;4.90;3.43;;;;;;;;;;5061812;28;20237;-87
2023/08/04 06:59:29;;;;;;;5.37;3.57;;;;;;;;;;5059114;28;20205;-90
2023/08/04 07:01:56;;;;;;;3.53;3.23;;;;;;;;;;5066117;28;20217;-90
2023/08/04 07:04:23;;;;;;;6.13;3.90;;;;;;;;;;5056825;28;20217;-91
2023/08/04 07:06:51;;;;;;;4.07;3.67;;;;;;;;;;5051918;28;20240;-91
2023/08/04 07:09:18;;;;;;;4.70;4.00;;;;;;;;;;5061243;28;20202;-91
2023/08/04 07:11:45;;;;;;;4.60;3.87;;;;;;;;;;5058987;28;20240;-91
2023/08/04 07:14:13;;;;;;;4.07;3.33;;;;;;;;;;5062849;28;20205;-91
2023/08/04 07:16:40;;;;;;;5.27;3.60;;;;;;;;;;5061412;28;20236;-91
2023/08/04 07:19:07;;;;;;;4.90;4.30;;;;;;;;;;5056912;28;20245;-91
2023/08/04 07:21:34;;;;;;;4.40;4.00;;;;;;;;;;5067863;28;20221;-90
2023/08/04 07:24:02;;;;;;;5.87;4.20;;;;;;;;;;5061560;28;20212;-91
2023/08/04 07:26:30;;;;;;;5.53;4.30;;;;;;;;;;5060818;28;20198;-91
2023/08/04 07:28:57;;;;;;;5.00;4.27;;;;;;;;;;5061638;28;20206;-90
2023/08/04 07:31:24;;;;;;;6.10;4.50;;;;;;;;;;5070827;28;20252;-90
2023/08/04 07:33:51;;;;;;;7.47;4.83;;;;;;;;;;5051813;28;20217;-90
2023/08/04 07:36:18;;;;;;;5.30;4.30;;;;;;;;;;5068710;28;20304;-89
2023/08/04 07:38:45;;;;;;;5.63;4.37;;;;;;;;;;5064033;28;20228;-91
2023/08/04 07:41:19;;;;;;;5.97;4.60;;;;;;;;;;5060687;28;20695;-90
2023/08/04 07:43:46;;;;;;;7.77;4.87;;;;;;;;;;5070765;28;20214;-90
2023/08/04 07:46:15;;;;;;;5.70;4.30;;;;;;;;;;5054945;28;20229;-90
2023/08/04 07:48:42;;;;;;;7.73;4.63;;;;;;;;;;5051735;28;20218;-90
2023/08/04 07:51:09;;;;;;;7.57;5.03;;;;;;;;;;5056583;28;20244;-91
2023/08/04 07:53:36;;;;;;;5.30;4.73;;;;;;;;;;5056803;28;20699;-90
2023/08/04 07:56:03;;;;;;;7.07;5.23;;;;;;;;;;5056525;28;20206;-89
2023/08/04 07:58:31;;;;;;;7.20;5.27;;;;;;;;;;5049515;28;20210;-90
2023/08/04 08:00:59;;;;;;;7.47;5.07;;;;;;;;;;5050907;28;20211;-90
2023/08/04 08:03:26;;;;;;;5.67;5.07;;;;;;;;;;5041984;28;20224;-89
2023/08/04 08:05:53;;;;;;;7.27;5.30;;;;;;;;;;5056485;28;20667;-89
2023/08/04 08:08:20;;;;;;;7.80;5.80;;;;;;;;;;5054954;28;20595;-89
2023/08/04 08:10:47;;;;;;;8.73;5.80;;;;;;;;;;5055701;28;20230;-90
2023/08/04 08:13:14;;;;;;;7.20;5.37;;;;;;;;;;5050200;28;20224;-89
2023/08/04 08:15:42;;;;;;;9.40;5.80;;;;;;;;;;5042929;28;20206;-90
2023/08/04 08:18:09;;;;;;;8.90;6.13;;;;;;;;;;5054400;28;20234;-89
2023/08/04 08:20:40;;;;;;;8.83;5.93;;;;;;;;;;5036711;28;20223;-89
2023/08/04 08:23:07;;;;;;;10.77;5.93;;;;;;;;;;5037379;28;20288;-90
2023/08/04 08:25:35;;;;;;;8.23;5.83;;;;;;;;;;5057247;28;20198;-90
2023/08/04 08:28:02;;;;;;;10.23;5.80;;;;;;;;;;5056557;28;20732;-91
2023/08/04 08:30:29;;;;;;;8.53;6.00;;;;;;;;;;5057219;28;20691;-91
2023/08/04 08:32:57;;;;;;;7.60;5.90;;;;;;;;;;5056772;28;20714;-91
2023/08/04 08:35:24;;;;;;;7.80;5.63;;;;;;;;;;5036771;28;20219;-92
2023/08/04 08:37:51;;;;;;;7.17;5.33;;;;;;;;;;5044653;28;20234;-91
2023/08/04 08:40:19;;;;;;;8.03;5.80;;;;;;;;;;5053316;28;20226;-92
2023/08/04 08:42:46;;;;;;;6.10;5.37;;;;;;;;;;5036013;28;20281;-92
2023/08/04 08:45:13;;;;;;;6.73;5.67;;;;;;;;;;5037143;28;20206;-92
2023/08/04 08:47:40;;;;;;;6.43;5.37;;;;;;;;;;5048136;28;20268;-91
2023/08/04 08:50:11;;;;;;;7.60;5.33;;;;;;;;;;5055404;28;20337;-91
2023/08/04 08:52:39;;;;;;;9.20;5.43;;;;;;;;;;5041107;28;20237;-92
2023/08/04 08:55:07;;;;;;;6.10;5.50;;;;;;;;;;5055808;28;20202;-90
2023/08/04 08:57:34;;;;;;;5.97;5.47;;;;;;;;;;5048500;28;20230;-90
2023/08/04 09:00:02;;;;;;;6.87;5.17;;;;;;;;;;5048144;28;20218;-90
2023/08/04 09:02:29;;;;;;;6.90;4.60;;;;;;;;;;5047858;28;20213;-91
2023/08/04 09:04:56;;;;;;;6.13;4.90;;;;;;;;;;5056292;28;20198;-90
2023/08/04 09:07:25;;;;;;;6.43;5.73;;;;;;;;;;5055545;28;20261;-91
2023/08/04 09:09:52;;;;;;;6.95;5.45;;;;;;;;;;5040258;28;20234;-90
2023/08/04 09:12:19;;;;;;;6.35;5.72;;;;;;;;;;5052774;28;20236;-90
2023/08/04 09:14:50;;;;;;;7.17;5.87;;;;;;;;;;5055403;28;20685;-90
2023/08/04 09:17:30;;;;;;;7.07;5.40;;;;;;;;;;5051018;28;20222;-90
2023/08/04 09:19:58;;;;;;;6.65;5.40;;;;;;;;;;5054632;28;20218;-90
2023/08/04 09:22:27;;;;;;;7.30;6.53;;;;;;;;;;5054849;28;20612;-90
2023/08/04 09:24:54;;;;;;;6.97;6.28;;;;;;;;;;5037553;28;20211;-90
2023/08/04 09:27:28;;;;;;;8.43;5.93;;;;;;;;;;5051332;28;20233;-89
2023/08/04 09:29:59;;;;;;;10.82;6.70;;;;;;;;;;5035768;28;20232;-89
2023/08/04 09:32:27;;;;;;;8.40;6.45;;;;;;;;;;5046615;28;20225;-89
2023/08/04 09:35:04;;;;;;;8.55;6.93;;;;;;;;;;5047588;28;20664;-89
2023/08/04 09:37:33;;;;;;;10.43;7.47;;;;;;;;;;5046419;28;20241;-88
2023/08/04 09:40:00;;;;;;;11.13;7.47;;;;;;;;;;5047391;28;20238;-88
2023/08/04 09:42:27;;;;;;;8.45;6.53;;;;;;;;;;5034854;28;20234;-88
2023/08/04 09:44:55;;;;;;;9.73;6.88;;;;;;;;;;5042275;28;20235;-88
2023/08/04 09:47:23;;;;;;;7.50;6.63;;;;;;;;;;5051993;28;20586;-87
2023/08/04 09:49:50;;;;;;;8.18;6.95;;;;;;;;;;5035260;28;20238;-89
2023/08/04 09:52:21;;;;;;;10.15;7.15;;;;;;;;;;5044429;28;20234;-89
2023/08/04 09:54:49;;;;;;;9.65;7.15;;;;;;;;;;5054477;28;20197;-88
2023/08/04 09:57:17;;;;;;;7.90;6.95;;;;;;;;;;5054133;28;20230;-88
2023/08/04 09:59:44;;;;;;;8.02;6.90;;;;;;;;;;5049146;28;20242;-88
2023/08/04 10:02:13;;;;;;;7.85;7.05;;;;;;;;;;5033888;28;20308;-89
2023/08/04 10:04:40;;;;;;;7.95;7.15;;;;;;;;;;5034539;28;20228;-88
2023/08/04 10:07:09;;;;;;;8.57;7.15;;;;;;;;;;5034028;28;20241;-88
2023/08/04 10:09:36;;;;;;;9.95;7.63;;;;;;;;;;5042514;28;20194;-88
2023/08/04 10:12:06;;;;;;;7.20;6.53;;;;;;;;;;5048695;28;20465;-88
2023/08/04 10:14:33;;;;;;;7.65;6.82;;;;;;;;;;5054379;28;20675;-88
2023/08/04 10:17:01;;;;;;;10.27;7.40;;;;;;;;;;5054083;28;20229;-88
2023/08/04 10:19:29;;;;;;;8.05;6.07;;;;;;;;;;5052346;28;20240;-88
2023/08/04 10:22:04;;;;;;;7.15;5.93;;;;;;;;;;5053874;28;20281;-88
2023/08/04 10:24:31;;;;;;;6.90;5.95;;;;;;;;;;5034440;28;20207;-88
2023/08/04 10:26:58;;;;;;;6.82;5.93;;;;;;;;;;5053863;28;20293;-87
2023/08/04 10:29:37;;;;;;;7.07;5.93;;;;;;;;;;5054140;28;20293;-88
2023/08/04 10:32:14;;;;;;;7.70;5.82;;;;;;;;;;5041979;28;20224;-87
2023/08/04 10:34:54;;;;;;;8.23;7.38;;;;;;;;;;5047211;28;20193;-87
2023/08/04 10:37:28;;;;;;;7.85;5.88;;;;;;;;;;5040359;28;20240;-87
2023/08/04 10:39:59;;;;;;;9.23;5.55;;;;;;;;;;5048588;28;20221;-87
2023/08/04 10:42:27;;;;;;;7.28;4.50;;;;;;;;;;5045383;28;20221;-88
2023/08/04 10:44:56;;;;;;;4.50;3.70;;;;;;;;;;5047632;28;20203;-87
2023/08/04 10:47:30;;;;;;;5.97;4.38;;;;;;;;;;5050919;28;20237;-86
2023/08/04 10:49:59;;;;;;;5.45;4.68;;;;;;;;;;5053347;28;20237;-85
2023/08/04 10:52:26;;;;;;;7.00;4.22;;;;;;;;;;5053043;28;20240;-85
2023/08/04 10:54:54;;;;;;;7.15;3.88;;;;;;;;;;5052650;28;20217;-85
2023/08/04 10:57:23;;;;;;;4.72;4.22;;;;;;;;;;5052238;28;20481;-85
2023/08/04 10:59:50;;;;;;;5.93;3.55;;;;;;;;;;5052726;28;20240;-86
2023/08/04 11:02:19;;;;;;;3.50;3.17;;;;;;;;;;5053155;28;20238;-88
2023/08/04 11:04:47;;;;;;;4.43;3.30;;;;;;;;;;5053377;28;20202;-89
2023/08/04 11:07:15;;;;;;;3.42;3.13;;;;;;;;;;5052510;28;20723;-88
2023/08/04 11:09:42;;;;;;;3.47;3.17;;;;;;;;;;5049209;28;20219;-88
2023/08/04 11:12:09;;;;;;;3.45;2.90;;;;;;;;;;5050009;28;20240;-90
2023/08/04 11:14:38;;;;;;;3.08;2.78;;;;;;;;;;5053707;28;20213;-89
2023/08/04 11:17:12;;;;;;;4.32;3.72;;;;;;;;;;5053491;28;20237;-89
2023/08/04 11:19:40;;;;;;;6.28;3.83;;;;;;;;;;5053496;28;20225;-89
2023/08/04 11:22:11;;;;;;;5.85;4.43;;;;;;;;;;5037055;28;20242;-87
2023/08/04 11:24:38;;;;;;;3.72;3.42;;;;;;;;;;5045727;28;20213;-87
2023/08/04 11:27:06;;;;;;;4.78;3.78;;;;;;;;;;5037421;28;20241;-88
2023/08/04 11:29:33;;;;;;;3.95;3.40;;;;;;;;;;5053013;28;20220;-87
2023/08/04 11:32:00;;;;;;;3.47;3.17;;;;;;;;;;5052981;28;20259;-87
2023/08/04 11:34:28;;;;;;;3.95;3.38;;;;;;;;;;5053135;28;20206;-86
2023/08/04 11:36:57;;;;;;;4.10;3.63;;;;;;;;;;5053329;28;20230;-87
2023/08/04 11:39:24;;;;;;;3.55;3.13;;;;;;;;;;5052868;28;20226;-87
2023/08/04 11:41:51;;;;;;;5.25;3.90;;;;;;;;;;5052861;28;20245;-87
2023/08/04 11:44:18;;;;;;;4.45;3.53;;;;;;;;;;5053320;28;20198;-88
2023/08/04 11:46:45;;;;;;;3.70;3.40;;;;;;;;;;5052884;28;20238;-89
2023/08/04 11:49:12;;;;;;;4.80;3.53;;;;;;;;;;5053298;28;20198;-89
2023/08/04 11:51:43;;;;;;;3.47;2.90;;;;;;;;;;5040588;28;20226;-89
2023/08/04 11:54:19;;;;;;;4.80;2.90;;;;;;;;;;5033578;28;20254;-90
2023/08/04 11:56:46;;;;;;;8.38;5.82;;;;;;;;;;5038566;28;20498;-81
2023/08/04 11:59:14;;;;;;;12.50;7.95;;;;;;;;;;5041893;28;20230;-82
2023/08/04 12:01:41;;;;;;;6.25;5.03;;;;;;;;;;5040374;28;20264;-82
2023/08/04 12:04:21;;;;;;;4.30;3.50;;;;;;;;;;5050286;28;20202;-81
2023/08/04 12:06:48;;;;;;;4.03;3.05;;;;;;;;;;5051340;28;20287;-84
2023/08/04 12:09:18;;;;;;;3.72;3.42;;;;;;;;;;5045738;28;20210;-81
2023/08/04 12:11:50;;;;;;;6.07;3.75;;;;;;;;;;5040109;28;20245;-81
2023/08/04 12:14:19;;;;;;;3.70;3.30;;;;;;;;;;5041423;28;20561;-81
2023/08/04 12:16:49;;;;;;;3.70;3.40;;;;;;;;;;5042826;28;20244;-81
2023/08/04 12:19:16;;;;;;;4.43;3.35;;;;;;;;;;5038593;28;20229;-81
2023/08/04 12:21:43;;;;;;;5.38;3.50;;;;;;;;;;5053081;28;20237;-82
2023/08/04 12:24:10;;;;;;;5.05;3.30;;;;;;;;;;5053925;28;20202;-82
2023/08/04 12:26:37;;;;;;;3.22;2.92;;;;;;;;;;5042333;28;20234;-83
2023/08/04 12:29:06;;;;;;;5.75;3.17;;;;;;;;;;5050321;28;20214;-82
2023/08/04 12:31:33;;;;;;;3.60;2.90;;;;;;;;;;5041851;28;20237;-83
2023/08/04 12:34:00;;;;;;;3.38;3.08;;;;;;;;;;5048603;28;20198;-82
2023/08/04 12:36:27;;;;;;;3.80;3.13;;;;;;;;;;5051050;28;20586;-84
2023/08/04 12:38:54;;;;;;;4.70;2.92;;;;;;;;;;5034002;28;20694;-83
2023/08/04 12:41:21;;;;;;;3.45;2.70;;;;;;;;;;5044724;28;20715;-84
2023/08/04 12:43:48;;;;;;;3.17;2.88;;;;;;;;;;5054292;28;20680;-83
2023/08/04 12:46:16;;;;;;;3.67;3.08;;;;;;;;;;5054302;28;20206;-83
2023/08/04 12:48:43;;;;;;;4.13;3.28;;;;;;;;;;5051154;28;20238;-83
2023/08/04 12:51:11;;;;;;;5.47;3.53;;;;;;;;;;5053556;28;20230;-83
2023/08/04 12:53:38;;;;;;;5.05;3.47;;;;;;;;;;5052599;28;20240;-83
2023/08/04 12:56:05;;;;;;;3.67;3.38;;;;;;;;;;5048141;28;20207;-84
2023/08/04 12:58:32;;;;;;;4.95;3.42;;;;;;;;;;5052080;28;20233;-83
2023/08/04 13:00:59;;;;;;;6.00;3.80;;;;;;;;;;5039188;28;20234;-84
2023/08/04 13:03:27;;;;;;;5.03;3.45;;;;;;;;;;5052554;28;20242;-84
2023/08/04 13:05:54;;;;;;;4.07;3.78;;;;;;;;;;5055052;28;20216;-84
2023/08/04 13:08:21;;;;;;;3.83;3.53;;;;;;;;;;5035467;28;20235;-84
2023/08/04 13:10:48;;;;;;;6.82;4.00;;;;;;;;;;5037159;28;20249;-83
2023/08/04 13:13:15;;;;;;;6.05;3.40;;;;;;;;;;5053309;28;20248;-83
2023/08/04 13:15:43;;;;;;;4.50;3.58;;;;;;;;;;5059835;28;20217;-83
2023/08/04 13:18:10;;;;;;;4.07;3.45;;;;;;;;;;5052650;28;20257;-83
2023/08/04 13:20:39;;;;;;;5.03;3.42;;;;;;;;;;5033552;28;20230;-81
2023/08/04 13:23:06;;;;;;;5.05;3.15;;;;;;;;;;5051208;28;20321;-80
2023/08/04 13:25:36;;;;;;;4.70;3.53;;;;;;;;;;5051775;28;20202;-80
2023/08/04 13:28:03;;;;;;;3.55;3.25;;;;;;;;;;5051363;28;20723;-82
2023/08/04 13:30:30;;;;;;;5.70;3.65;;;;;;;;;;5051968;28;20222;-82
2023/08/04 13:32:57;;;;;;;4.32;3.50;;;;;;;;;;5046201;28;20257;-83
2023/08/04 13:35:25;;;;;;;9.05;3.60;;;;;;;;;;5050325;28;20676;-82
2023/08/04 13:37:53;;;;;;;3.92;3.35;;;;;;;;;;5044270;28;20598;-82
2023/08/04 13:40:20;;;;;;;4.28;3.47;;;;;;;;;;5045243;28;20230;-89
2023/08/04 13:42:48;;;;;;;4.75;3.22;;;;;;;;;;5054401;28;20229;-89
2023/08/04 13:45:15;;;;;;;5.63;4.07;;;;;;;;;;5047738;28;20234;-89
2023/08/04 13:47:46;;;;;;;4.70;3.25;;;;;;;;;;5051510;28;20234;-89
2023/08/04 13:50:15;;;;;;;6.50;4.22;;;;;;;;;;5041439;28;20597;-89
2023/08/04 13:52:42;;;;;;;9.02;5.30;;;;;;;;;;5045885;28;20230;-89
2023/08/04 13:55:10;;;;;;;4.13;3.38;;;;;;;;;;5055366;28;20206;-87
2023/08/04 13:57:37;;;;;;;4.38;3.50;;;;;;;;;;5046487;28;20246;-88
2023/08/04 14:00:05;;;;;;;5.18;3.95;;;;;;;;;;5053096;28;20233;-88
2023/08/04 14:02:33;;;;;;;6.15;3.60;;;;;;;;;;5046116;28;20235;-88
2023/08/04 14:05:00;;;;;;;5.43;4.38;;;;;;;;;;5055496;28;20583;-89
2023/08/04 14:07:27;;;;;;;3.83;3.45;;;;;;;;;;5045029;28;20230;-88
2023/08/04 14:09:54;;;;;;;5.65;3.42;;;;;;;;;;5043255;28;20218;-89
2023/08/04 14:12:23;;;;;;;7.63;3.30;;;;;;;;;;5051146;28;20225;-89
2023/08/04 14:14:53;;;;;;;3.40;3.10;;;;;;;;;;5043017;28;20226;-88
2023/08/04 14:17:20;;;;;;;5.32;3.28;;;;;;;;;;5053598;28;20234;-88
2023/08/04 14:19:53;;;;;;;4.55;2.95;;;;;;;;;;5041740;28;20715;-88
2023/08/04 14:22:27;;;;;;;4.35;2.88;;;;;;;;;;5048228;28;20233;-89
2023/08/04 14:25:02;;;;;;;2.90;2.60;;;;;;;;;;5041762;28;20210;-89
2023/08/04 14:27:30;;;;;;;3.00;2.80;;;;;;;;;;5046479;28;20248;-89
2023/08/04 14:29:57;;;;;;;3.90;3.50;;;;;;;;;;5048132;28;20247;-89
2023/08/04 14:32:24;;;;;;;6.45;3.10;;;;;;;;;;5042356;28;20217;-89
2023/08/04 14:34:51;;;;;;;4.18;3.00;;;;;;;;;;5049815;28;20198;-89
2023/08/04 14:37:18;;;;;;;3.03;2.75;;;;;;;;;;5042259;28;20225;-89
2023/08/04 14:39:45;;;;;;;3.55;2.85;;;;;;;;;;5043111;28;20260;-89
2023/08/04 14:42:12;;;;;;;5.07;3.53;;;;;;;;;;5046043;28;20256;-89
2023/08/04 14:44:41;;;;;;;3.00;2.75;;;;;;;;;;5042473;28;20210;-89
2023/08/04 14:47:08;;;;;;;2.90;2.60;;;;;;;;;;5053315;28;20242;-89